Time;durP1;ratioP1;P1;durP2;ratioP2;P2;SDS_P1;SDS_P2;PMS_P1;PMS_P2;Temp;Humidity;BMP_temperature;BMP_pressure;BME280_temperature;BME280_humidity;BME280_pressure;Samples;Min_cycle;Max_cycle;Signal;HPM_P1;HPM_P2
2022/12/08 00:00:06;;;;;;;58.07;29.27;;;;;;;;;;5113112;28;20528;-71
2022/12/08 00:02:31;;;;;;;62.88;28.75;;;;;;;;;;5106345;28;20834;-71
2022/12/08 00:10:24;;;;;;;59.38;29.20;;;;;;;;;;5108204;28;20092;-70
2022/12/08 00:12:49;;;;;;;58.67;28.73;;;;;;;;;;5113122;28;20027;-71
2022/12/08 00:15:15;;;;;;;54.47;26.97;;;;;;;;;;5111630;28;20054;-71
2022/12/08 00:17:40;;;;;;;55.77;26.33;;;;;;;;;;5113061;28;20297;-71
2022/12/08 00:20:06;;;;;;;51.40;25.80;;;;;;;;;;5109498;28;20370;-71
2022/12/08 00:22:31;;;;;;;53.47;25.73;;;;;;;;;;5110804;28;20118;-71
2022/12/08 00:24:56;;;;;;;53.00;26.57;;;;;;;;;;5110095;27;20032;-71
2022/12/08 00:27:21;;;;;;;51.65;24.83;;;;;;;;;;5112005;28;20276;-71
2022/12/08 00:29:46;;;;;;;51.87;26.50;;;;;;;;;;5111140;28;20072;-71
2022/12/08 00:32:12;;;;;;;54.97;25.17;;;;;;;;;;5110961;28;20023;-71
2022/12/08 00:34:37;;;;;;;50.58;26.25;;;;;;;;;;5112667;28;20041;-71
2022/12/08 00:37:02;;;;;;;53.17;26.50;;;;;;;;;;5112225;28;20465;-71
2022/12/08 00:39:27;;;;;;;50.43;23.80;;;;;;;;;;5108060;28;20366;-71
2022/12/08 00:42:11;;;;;;;52.33;24.20;;;;;;;;;;5111570;28;20514;-71
2022/12/08 00:44:36;;;;;;;47.70;23.58;;;;;;;;;;5111950;28;20279;-70
2022/12/08 00:47:02;;;;;;;53.60;25.35;;;;;;;;;;5112418;28;20023;-71
2022/12/08 00:49:27;;;;;;;54.60;25.90;;;;;;;;;;5110630;28;20089;-71
2022/12/08 00:51:52;;;;;;;52.55;24.90;;;;;;;;;;5110573;28;20031;-71
2022/12/08 00:54:17;;;;;;;48.20;23.15;;;;;;;;;;5111778;28;20023;-71
2022/12/08 00:56:43;;;;;;;44.07;21.03;;;;;;;;;;5109186;28;20043;-71
2022/12/08 00:59:08;;;;;;;43.77;21.20;;;;;;;;;;5111859;28;20633;-71
2022/12/08 01:01:34;;;;;;;42.67;21.38;;;;;;;;;;5108687;28;20111;-71
2022/12/08 01:04:07;;;;;;;42.63;21.10;;;;;;;;;;5111996;28;20031;-71
2022/12/08 01:06:35;;;;;;;42.85;20.92;;;;;;;;;;5110526;28;20059;-71
2022/12/08 01:09:01;;;;;;;41.70;21.20;;;;;;;;;;5109919;28;20481;-71
2022/12/08 01:11:26;;;;;;;49.05;22.92;;;;;;;;;;5110268;28;20485;-71
2022/12/08 01:13:52;;;;;;;46.13;22.23;;;;;;;;;;5110472;28;20023;-71
2022/12/08 01:16:19;;;;;;;49.53;23.95;;;;;;;;;;5111073;28;20777;-71
2022/12/08 01:18:44;;;;;;;52.33;26.45;;;;;;;;;;5110143;28;20773;-71
2022/12/08 01:21:09;;;;;;;49.77;23.77;;;;;;;;;;5110345;28;20016;-70
2022/12/08 01:23:35;;;;;;;46.70;22.40;;;;;;;;;;5111249;28;20100;-70
2022/12/08 01:26:04;;;;;;;41.00;21.23;;;;;;;;;;5111133;28;20019;-71
2022/12/08 01:28:29;;;;;;;46.30;23.70;;;;;;;;;;5111097;27;20817;-71
2022/12/08 01:30:55;;;;;;;45.08;22.63;;;;;;;;;;5106738;28;20107;-70
2022/12/08 01:33:20;;;;;;;39.45;20.45;;;;;;;;;;5111489;28;20110;-70
2022/12/08 01:35:46;;;;;;;48.85;23.80;;;;;;;;;;5106718;28;20022;-70
2022/12/08 01:38:11;;;;;;;44.47;22.80;;;;;;;;;;5111322;28;20032;-70
2022/12/08 01:40:36;;;;;;;40.50;20.40;;;;;;;;;;5109926;28;20055;-71
2022/12/08 01:43:01;;;;;;;38.03;17.90;;;;;;;;;;5111093;28;20036;-71
2022/12/08 01:45:28;;;;;;;34.47;17.57;;;;;;;;;;5105135;28;20280;-70
2022/12/08 01:47:55;;;;;;;35.08;18.27;;;;;;;;;;5110900;28;20470;-70
2022/12/08 01:50:21;;;;;;;31.67;16.90;;;;;;;;;;5109252;28;20023;-71
2022/12/08 01:52:48;;;;;;;31.80;16.02;;;;;;;;;;5103525;28;20382;-71
2022/12/08 01:55:43;;;;;;;30.77;15.90;;;;;;;;;;5109198;28;20023;-71
2022/12/08 01:58:14;;;;;;;30.48;15.48;;;;;;;;;;5092860;28;20217;-70
2022/12/08 02:00:39;;;;;;;29.70;15.48;;;;;;;;;;5108209;28;20027;-70
2022/12/08 02:03:10;;;;;;;29.92;15.10;;;;;;;;;;5106523;28;20111;-70
2022/12/08 02:05:37;;;;;;;29.58;14.55;;;;;;;;;;5110163;28;20465;-70
2022/12/08 02:08:05;;;;;;;26.95;13.55;;;;;;;;;;5104429;28;20501;-71
2022/12/08 02:10:32;;;;;;;27.17;13.88;;;;;;;;;;5109175;28;20032;-70
2022/12/08 02:12:58;;;;;;;23.65;12.93;;;;;;;;;;5110253;28;20046;-72
2022/12/08 02:15:31;;;;;;;24.40;11.98;;;;;;;;;;5110971;28;20055;-71
2022/12/08 02:18:04;;;;;;;22.63;11.73;;;;;;;;;;5108895;28;20066;-71
2022/12/08 02:20:35;;;;;;;21.70;11.75;;;;;;;;;;5109667;28;20024;-71
2022/12/08 02:23:17;;;;;;;22.55;11.30;;;;;;;;;;5110704;28;20055;-71
2022/12/08 02:25:57;;;;;;;19.85;10.60;;;;;;;;;;5106961;28;20024;-71
2022/12/08 02:28:40;;;;;;;21.15;10.98;;;;;;;;;;5107162;28;20077;-71
2022/12/08 02:31:06;;;;;;;20.15;11.13;;;;;;;;;;5105654;28;20354;-71
2022/12/08 02:33:50;;;;;;;18.77;10.73;;;;;;;;;;5106473;28;20027;-71
2022/12/08 02:36:18;;;;;;;21.88;11.30;;;;;;;;;;5105327;28;20028;-71
2022/12/08 02:38:55;;;;;;;17.73;9.75;;;;;;;;;;5109384;28;20020;-71
2022/12/08 02:41:26;;;;;;;18.08;9.60;;;;;;;;;;5109529;28;20079;-70
2022/12/08 02:43:56;;;;;;;18.17;8.93;;;;;;;;;;5110394;28;20055;-71
2022/12/08 02:46:21;;;;;;;;;;;;;;;;;;5106756;28;20028;-71
2022/12/08 02:48:47;;;;;;;17.23;9.27;;;;;;;;;;5110171;28;19935;-71
2022/12/08 02:51:12;;;;;;;17.35;9.30;;;;;;;;;;5108835;28;20024;-71
2022/12/08 02:53:37;;;;;;;17.08;9.93;;;;;;;;;;5102312;28;20028;-70
2022/12/08 02:56:03;;;;;;;18.98;9.82;;;;;;;;;;5111764;28;20031;-71
2022/12/08 02:58:40;;;;;;;18.60;10.53;;;;;;;;;;5106041;28;20481;-71
2022/12/08 03:01:11;;;;;;;18.67;10.25;;;;;;;;;;5108173;28;20313;-71
2022/12/08 03:03:47;;;;;;;20.55;10.82;;;;;;;;;;5109660;28;20504;-71
2022/12/08 03:06:12;;;;;;;18.08;10.50;;;;;;;;;;5109682;28;20366;-71
2022/12/08 03:08:49;;;;;;;25.00;10.33;;;;;;;;;;5108643;28;20095;-70
2022/12/08 03:11:27;;;;;;;18.80;10.60;;;;;;;;;;5109240;28;20441;-71
2022/12/08 03:13:55;;;;;;;20.17;10.30;;;;;;;;;;5110498;28;20024;-70
2022/12/08 03:16:24;;;;;;;19.85;10.73;;;;;;;;;;5107491;28;20023;-71
2022/12/08 03:18:52;;;;;;;19.60;10.02;;;;;;;;;;5108155;28;20047;-71
2022/12/08 03:21:18;;;;;;;16.67;9.35;;;;;;;;;;5109484;28;20051;-72
2022/12/08 03:23:44;;;;;;;16.98;8.88;;;;;;;;;;5106046;28;20443;-71
2022/12/08 03:26:11;;;;;;;17.23;9.15;;;;;;;;;;5089130;28;20119;-71
2022/12/08 03:28:37;;;;;;;18.33;8.25;;;;;;;;;;5106545;28;20024;-72
2022/12/08 03:31:04;;;;;;;14.07;8.38;;;;;;;;;;5109587;28;20085;-71
2022/12/08 03:33:32;;;;;;;14.70;7.68;;;;;;;;;;5109848;28;20098;-71
2022/12/08 03:35:58;;;;;;;16.10;8.52;;;;;;;;;;5108109;28;20020;-71
2022/12/08 03:38:23;;;;;;;18.33;8.50;;;;;;;;;;5108639;28;20027;-71
2022/12/08 03:41:17;;;;;;;22.20;9.40;;;;;;;;;;5107179;28;20098;-71
2022/12/08 03:43:34;;;;;;;38.67;12.68;;;;;;;;;;5104679;28;20038;-71
2022/12/08 03:45:59;;;;;;;28.17;12.27;;;;;;;;;;5110438;28;20028;-71
2022/12/08 03:48:24;;;;;;;29.15;11.32;;;;;;;;;;5110144;28;20261;-71
2022/12/08 03:50:49;;;;;;;22.97;10.40;;;;;;;;;;5109237;28;20450;-71
2022/12/08 03:53:15;;;;;;;19.63;9.87;;;;;;;;;;5107478;28;20375;-71
2022/12/08 03:55:40;;;;;;;21.97;9.63;;;;;;;;;;5111153;28;20778;-71
2022/12/08 03:58:05;;;;;;;20.70;8.70;;;;;;;;;;5113410;28;20352;-71
2022/12/08 04:00:30;;;;;;;18.80;8.97;;;;;;;;;;5107386;28;20275;-71
2022/12/08 04:02:56;;;;;;;17.50;9.23;;;;;;;;;;5109523;28;20813;-71
2022/12/08 04:05:21;;;;;;;19.17;10.07;;;;;;;;;;5108764;28;20423;-71
2022/12/08 04:07:46;;;;;;;18.93;9.73;;;;;;;;;;5112883;28;20027;-71
2022/12/08 04:10:11;;;;;;;27.07;11.40;;;;;;;;;;5112564;28;20103;-70
2022/12/08 04:12:36;;;;;;;23.00;12.97;;;;;;;;;;5109030;28;20197;-71
2022/12/08 04:15:02;;;;;;;23.23;11.13;;;;;;;;;;5111333;28;20272;-71
2022/12/08 04:17:27;;;;;;;21.13;9.60;;;;;;;;;;5112024;28;20027;-71
2022/12/08 04:19:52;;;;;;;17.47;9.10;;;;;;;;;;5110553;28;20030;-71
2022/12/08 04:22:17;;;;;;;16.20;9.17;;;;;;;;;;5106976;28;20271;-71
2022/12/08 04:24:43;;;;;;;13.83;8.30;;;;;;;;;;5111704;28;20035;-71
2022/12/08 04:27:08;;;;;;;14.63;8.30;;;;;;;;;;5110864;28;20064;-71
2022/12/08 04:29:33;;;;;;;15.60;7.87;;;;;;;;;;5111404;28;20019;-71
2022/12/08 04:31:58;;;;;;;17.17;7.23;;;;;;;;;;5109916;28;20027;-71
2022/12/08 04:34:24;;;;;;;20.47;8.90;;;;;;;;;;5110262;28;20287;-70
2022/12/08 04:36:49;;;;;;;13.73;8.00;;;;;;;;;;5111576;28;20278;-70
2022/12/08 04:39:14;;;;;;;14.70;8.00;;;;;;;;;;5113702;27;20288;-72
2022/12/08 04:41:39;;;;;;;17.43;7.93;;;;;;;;;;5108145;28;20039;-70
2022/12/08 04:44:05;;;;;;;15.03;8.30;;;;;;;;;;5110602;28;20355;-71
2022/12/08 04:46:30;;;;;;;16.20;8.43;;;;;;;;;;5111622;28;20319;-69
2022/12/08 04:48:55;;;;;;;24.33;11.55;;;;;;;;;;5105332;28;20028;-69
2022/12/08 04:51:20;;;;;;;27.60;11.60;;;;;;;;;;5105540;28;20034;-70
2022/12/08 04:53:46;;;;;;;18.27;9.80;;;;;;;;;;5110429;28;20284;-70
2022/12/08 04:56:12;;;;;;;17.48;7.88;;;;;;;;;;5109912;28;20026;-72
2022/12/08 04:58:37;;;;;;;16.02;8.32;;;;;;;;;;5110202;28;20023;-72
2022/12/08 05:01:02;;;;;;;14.97;8.73;;;;;;;;;;5110990;28;20111;-72
2022/12/08 05:03:28;;;;;;;19.70;9.50;;;;;;;;;;5111179;28;20805;-71
2022/12/08 05:05:53;;;;;;;18.07;8.60;;;;;;;;;;5110638;28;20363;-71
2022/12/08 05:08:18;;;;;;;17.47;9.57;;;;;;;;;;5110118;28;20634;-71
2022/12/08 05:10:43;;;;;;;17.92;9.05;;;;;;;;;;5111600;28;20380;-71
2022/12/08 05:13:09;;;;;;;19.80;10.30;;;;;;;;;;5111553;28;20454;-70
2022/12/08 05:15:34;;;;;;;20.80;11.07;;;;;;;;;;5111718;28;20446;-70
2022/12/08 05:17:59;;;;;;;29.97;12.90;;;;;;;;;;5111655;28;20313;-71
2022/12/08 05:20:24;;;;;;;22.73;11.60;;;;;;;;;;5107560;28;20023;-72
2022/12/08 05:22:50;;;;;;;27.47;12.07;;;;;;;;;;5109853;28;20272;-71
2022/12/08 05:25:15;;;;;;;25.92;11.70;;;;;;;;;;5112603;28;20275;-72
2022/12/08 05:27:41;;;;;;;23.10;11.20;;;;;;;;;;5110025;28;20032;-69
2022/12/08 05:30:07;;;;;;;21.13;10.15;;;;;;;;;;5107076;28;20673;-70
2022/12/08 05:32:32;;;;;;;20.88;10.30;;;;;;;;;;5111773;27;20103;-70
2022/12/08 05:34:57;;;;;;;21.23;10.27;;;;;;;;;;5111726;28;20096;-70
2022/12/08 05:37:22;;;;;;;26.93;11.13;;;;;;;;;;5110668;28;20274;-70
2022/12/08 05:39:48;;;;;;;22.73;11.33;;;;;;;;;;5110497;28;20100;-70
2022/12/08 05:42:13;;;;;;;23.70;10.97;;;;;;;;;;5109959;28;20106;-69
2022/12/08 05:44:38;;;;;;;17.90;10.13;;;;;;;;;;5111108;28;20271;-71
2022/12/08 05:47:03;;;;;;;19.70;10.07;;;;;;;;;;5106967;28;20098;-72
2022/12/08 05:49:29;;;;;;;16.75;9.70;;;;;;;;;;5111626;28;20027;-72
2022/12/08 05:51:54;;;;;;;20.53;10.33;;;;;;;;;;5111229;28;20031;-71
2022/12/08 05:54:19;;;;;;;19.30;9.20;;;;;;;;;;5110205;28;20282;-71
2022/12/08 05:56:44;;;;;;;22.37;10.10;;;;;;;;;;5110361;28;20066;-71
2022/12/08 05:59:12;;;;;;;21.77;11.15;;;;;;;;;;5111337;28;20073;-69
2022/12/08 06:01:38;;;;;;;22.95;12.07;;;;;;;;;;5105351;28;20055;-70
2022/12/08 06:04:03;;;;;;;25.50;12.38;;;;;;;;;;5106491;28;20493;-70
2022/12/08 06:06:29;;;;;;;26.05;12.00;;;;;;;;;;5109024;28;20025;-70
2022/12/08 06:08:54;;;;;;;24.75;11.82;;;;;;;;;;5108075;28;20534;-70
2022/12/08 06:11:27;;;;;;;23.08;11.93;;;;;;;;;;5109490;27;20101;-71
2022/12/08 06:13:54;;;;;;;22.33;11.52;;;;;;;;;;5107747;28;20049;-70
2022/12/08 06:16:20;;;;;;;24.55;11.68;;;;;;;;;;5110013;28;20452;-70
2022/12/08 06:18:45;;;;;;;24.02;12.20;;;;;;;;;;5109797;28;20106;-69
2022/12/08 06:21:11;;;;;;;25.92;12.13;;;;;;;;;;5110849;28;20083;-71
2022/12/08 06:23:37;;;;;;;21.83;11.80;;;;;;;;;;5110402;28;20044;-71
2022/12/08 06:26:04;;;;;;;23.42;11.70;;;;;;;;;;5108402;28;20091;-70
2022/12/08 06:28:30;;;;;;;28.05;12.07;;;;;;;;;;5109865;28;20015;-70
2022/12/08 06:30:55;;;;;;;22.17;11.20;;;;;;;;;;5108099;28;20447;-71
2022/12/08 06:33:20;;;;;;;19.77;10.32;;;;;;;;;;5107442;28;20577;-71
2022/12/08 06:35:46;;;;;;;21.30;10.60;;;;;;;;;;5109988;28;20084;-71
2022/12/08 06:38:11;;;;;;;25.47;11.10;;;;;;;;;;5106688;28;20038;-70
2022/12/08 06:40:36;;;;;;;25.03;11.73;;;;;;;;;;5106400;28;20314;-70
2022/12/08 06:43:01;;;;;;;25.53;10.53;;;;;;;;;;5108962;28;20275;-70
2022/12/08 06:45:26;;;;;;;20.97;10.87;;;;;;;;;;5108705;28;20315;-70
2022/12/08 06:47:52;;;;;;;24.00;11.00;;;;;;;;;;5109380;28;20038;-69
2022/12/08 06:50:17;;;;;;;23.13;11.27;;;;;;;;;;5104587;28;20717;-68
2022/12/08 06:52:42;;;;;;;26.60;11.30;;;;;;;;;;5100452;28;20381;-69
2022/12/08 06:55:08;;;;;;;25.92;10.45;;;;;;;;;;5109849;28;20322;-69
2022/12/08 06:57:33;;;;;;;20.55;10.50;;;;;;;;;;5106411;28;20023;-69
2022/12/08 06:59:59;;;;;;;22.27;10.75;;;;;;;;;;5106399;28;20423;-69
2022/12/08 07:02:24;;;;;;;23.63;10.37;;;;;;;;;;5106287;28;20015;-69
2022/12/08 07:04:49;;;;;;;20.58;9.77;;;;;;;;;;5106491;28;20031;-69
2022/12/08 07:07:15;;;;;;;18.85;9.98;;;;;;;;;;5110624;28;20054;-70
2022/12/08 07:09:40;;;;;;;21.33;10.00;;;;;;;;;;5109562;28;20073;-69
2022/12/08 07:12:05;;;;;;;23.43;10.53;;;;;;;;;;5109320;28;20873;-69
2022/12/08 07:14:30;;;;;;;23.88;9.52;;;;;;;;;;5107714;28;20502;-69
2022/12/08 07:16:56;;;;;;;21.40;9.20;;;;;;;;;;5104238;28;20055;-69
2022/12/08 07:19:21;;;;;;;20.70;9.73;;;;;;;;;;5108902;28;20704;-75
2022/12/08 07:21:46;;;;;;;27.48;10.93;;;;;;;;;;5110229;28;20038;-74
2022/12/08 07:24:12;;;;;;;25.00;11.57;;;;;;;;;;5108439;28;20052;-69
2022/12/08 07:26:37;;;;;;;19.73;10.73;;;;;;;;;;5109798;28;20024;-70
2022/12/08 07:29:02;;;;;;;24.25;11.15;;;;;;;;;;5108925;28;20389;-69
2022/12/08 07:31:28;;;;;;;25.30;10.70;;;;;;;;;;5112904;28;20064;-70
2022/12/08 07:33:53;;;;;;;21.00;9.82;;;;;;;;;;5113511;28;20031;-68
2022/12/08 07:36:19;;;;;;;21.05;10.02;;;;;;;;;;5109904;28;20480;-70
2022/12/08 07:38:44;;;;;;;21.65;10.85;;;;;;;;;;5113711;28;20024;-70
2022/12/08 07:41:13;;;;;;;23.52;11.38;;;;;;;;;;5112763;28;20389;-69
2022/12/08 07:43:38;;;;;;;25.10;12.25;;;;;;;;;;5113640;28;20104;-70
2022/12/08 07:46:04;;;;;;;25.23;10.85;;;;;;;;;;5112015;28;20223;-70
2022/12/08 07:48:29;;;;;;;23.30;11.10;;;;;;;;;;5111846;27;20026;-73
2022/12/08 07:51:02;;;;;;;23.37;11.73;;;;;;;;;;5111204;28;20032;-74
2022/12/08 07:53:27;;;;;;;21.63;10.93;;;;;;;;;;5110907;27;20276;-74
2022/12/08 07:55:52;;;;;;;22.58;11.88;;;;;;;;;;5111587;28;20499;-75
2022/12/08 07:58:17;;;;;;;22.73;11.13;;;;;;;;;;5112071;28;20036;-74
2022/12/08 08:00:43;;;;;;;27.17;12.00;;;;;;;;;;5110768;28;20024;-74
2022/12/08 08:03:09;;;;;;;23.13;12.97;;;;;;;;;;5108447;28;20039;-74
2022/12/08 08:05:34;;;;;;;27.35;12.65;;;;;;;;;;5106166;28;20035;-74
2022/12/08 08:08:00;;;;;;;25.40;12.30;;;;;;;;;;5109766;28;20103;-74
2022/12/08 08:10:25;;;;;;;31.25;13.20;;;;;;;;;;5109748;28;20268;-74
2022/12/08 08:12:50;;;;;;;24.37;11.97;;;;;;;;;;5107466;28;20032;-74
2022/12/08 08:15:16;;;;;;;25.73;12.87;;;;;;;;;;5110983;28;20383;-75
2022/12/08 08:17:42;;;;;;;28.15;13.30;;;;;;;;;;5108178;28;20280;-74
2022/12/08 08:20:07;;;;;;;28.35;13.40;;;;;;;;;;5111643;28;20405;-74
2022/12/08 08:22:33;;;;;;;26.85;13.15;;;;;;;;;;5110344;28;20020;-74
2022/12/08 08:24:58;;;;;;;30.10;13.63;;;;;;;;;;5111017;28;20039;-75
2022/12/08 08:27:24;;;;;;;29.83;13.30;;;;;;;;;;5112309;28;20118;-74
2022/12/08 08:29:49;;;;;;;33.08;13.32;;;;;;;;;;5107898;28;20572;-74
2022/12/08 08:32:14;;;;;;;27.23;13.10;;;;;;;;;;5104225;28;20024;-74
2022/12/08 08:34:39;;;;;;;27.80;13.60;;;;;;;;;;5109002;28;20111;-75
2022/12/08 08:37:05;;;;;;;25.70;13.10;;;;;;;;;;5109707;28;20054;-74
2022/12/08 08:39:30;;;;;;;24.53;12.40;;;;;;;;;;5111717;28;20280;-74
2022/12/08 08:41:56;;;;;;;25.95;12.70;;;;;;;;;;5110945;28;20317;-74
2022/12/08 08:44:21;;;;;;;29.40;13.70;;;;;;;;;;5110277;28;20030;-74
2022/12/08 08:46:46;;;;;;;29.15;15.10;;;;;;;;;;5110309;28;20031;-75
2022/12/08 08:49:12;;;;;;;28.20;13.13;;;;;;;;;;5111864;28;20379;-75
2022/12/08 08:51:37;;;;;;;28.03;12.73;;;;;;;;;;5111371;28;20441;-75
2022/12/08 08:54:02;;;;;;;27.63;13.70;;;;;;;;;;5109917;28;20110;-75
2022/12/08 08:56:27;;;;;;;28.02;13.85;;;;;;;;;;5110580;28;20026;-74
2022/12/08 08:58:53;;;;;;;27.57;13.77;;;;;;;;;;5109380;28;20545;-74
2022/12/08 09:01:45;;;;;;;26.33;12.80;;;;;;;;;;5111558;28;20428;-67
2022/12/08 09:04:08;;;;;;;28.50;13.68;;;;;;;;;;5109419;28;20036;-72
2022/12/08 09:06:33;;;;;;;30.88;13.35;;;;;;;;;;5110163;28;20023;-69
2022/12/08 09:08:58;;;;;;;28.20;13.53;;;;;;;;;;5108800;28;20024;-69
2022/12/08 09:11:23;;;;;;;27.20;12.90;;;;;;;;;;5107684;28;20331;-69
2022/12/08 09:13:49;;;;;;;31.53;13.60;;;;;;;;;;5109749;28;20054;-69
2022/12/08 09:16:15;;;;;;;26.48;13.35;;;;;;;;;;5106988;28;20826;-69
2022/12/08 09:18:40;;;;;;;29.38;13.45;;;;;;;;;;5108894;28;20069;-70
2022/12/08 09:21:07;;;;;;;32.47;13.67;;;;;;;;;;5110577;28;20377;-69
2022/12/08 09:23:32;;;;;;;30.38;12.82;;;;;;;;;;5106442;28;20280;-67
2022/12/08 09:25:58;;;;;;;27.55;13.55;;;;;;;;;;5099785;28;20036;-72
2022/12/08 09:28:23;;;;;;;35.17;16.88;;;;;;;;;;5108458;28;20629;-72
2022/12/08 09:30:49;;;;;;;29.27;15.07;;;;;;;;;;5110681;28;20026;-72
2022/12/08 09:33:14;;;;;;;28.17;14.15;;;;;;;;;;5110829;28;20059;-72
2022/12/08 09:35:40;;;;;;;27.13;12.23;;;;;;;;;;5111001;28;20443;-71
2022/12/08 09:38:05;;;;;;;29.60;13.17;;;;;;;;;;5111311;28;20031;-71
2022/12/08 09:40:31;;;;;;;23.43;12.50;;;;;;;;;;5110668;28;20047;-73
2022/12/08 09:43:00;;;;;;;24.50;12.10;;;;;;;;;;5108386;28;20019;-73
2022/12/08 09:45:27;;;;;;;54.50;22.33;;;;;;;;;;5106283;28;20023;-72
2022/12/08 09:47:53;;;;;;;31.05;15.88;;;;;;;;;;5109095;28;20027;-69
2022/12/08 09:50:30;;;;;;;26.95;12.68;;;;;;;;;;5109242;28;20028;-68
2022/12/08 09:53:03;;;;;;;24.30;12.38;;;;;;;;;;5108841;28;20023;-69
2022/12/08 09:55:34;;;;;;;21.27;11.65;;;;;;;;;;5109248;28;20023;-69
2022/12/08 09:58:01;;;;;;;32.95;13.23;;;;;;;;;;5109319;28;20036;-73
2022/12/08 10:00:27;;;;;;;26.23;13.65;;;;;;;;;;5106652;28;20024;-74
2022/12/08 10:02:52;;;;;;;30.73;12.73;;;;;;;;;;5108265;28;20088;-72
2022/12/08 10:05:17;;;;;;;23.93;12.27;;;;;;;;;;5109447;28;20059;-74
2022/12/08 10:07:45;;;;;;;27.10;13.35;;;;;;;;;;5110319;27;20634;-73
2022/12/08 10:10:10;;;;;;;27.77;13.50;;;;;;;;;;5109646;28;20027;-74
2022/12/08 10:12:41;;;;;;;30.13;12.33;;;;;;;;;;5107517;28;20481;-74
2022/12/08 10:15:25;;;;;;;25.40;12.13;;;;;;;;;;5106795;28;20389;-75
2022/12/08 10:17:50;;;;;;;26.38;12.18;;;;;;;;;;5106037;28;20015;-74
2022/12/08 10:20:15;;;;;;;24.88;12.13;;;;;;;;;;5106773;28;20027;-74
2022/12/08 10:22:41;;;;;;;24.37;11.53;;;;;;;;;;5109845;28;20466;-73
2022/12/08 10:25:13;;;;;;;26.63;13.05;;;;;;;;;;5109173;28;20036;-73
2022/12/08 10:27:38;;;;;;;26.25;12.65;;;;;;;;;;5109712;28;20027;-73
2022/12/08 10:30:14;;;;;;;28.43;12.97;;;;;;;;;;5108892;28;20015;-73
2022/12/08 10:32:42;;;;;;;26.88;12.77;;;;;;;;;;5107667;28;20023;-74
2022/12/08 10:35:09;;;;;;;27.23;12.80;;;;;;;;;;5110212;28;20385;-73
2022/12/08 10:37:35;;;;;;;24.00;12.13;;;;;;;;;;5108815;28;20019;-73
2022/12/08 10:40:15;;;;;;;24.85;12.35;;;;;;;;;;5110285;28;20042;-72
2022/12/08 10:42:49;;;;;;;31.38;12.77;;;;;;;;;;5107223;28;20103;-73
2022/12/08 10:45:25;;;;;;;27.15;12.00;;;;;;;;;;5104512;28;20055;-72
2022/12/08 10:48:01;;;;;;;28.60;12.10;;;;;;;;;;5108593;28;20027;-71
2022/12/08 10:50:31;;;;;;;23.38;11.48;;;;;;;;;;5108084;28;20031;-71
2022/12/08 10:52:58;;;;;;;24.80;12.52;;;;;;;;;;5107963;28;20019;-74
2022/12/08 10:55:24;;;;;;;23.50;12.25;;;;;;;;;;5110855;28;20023;-71
2022/12/08 10:57:49;;;;;;;26.23;11.73;;;;;;;;;;5112139;28;20015;-73
2022/12/08 11:00:16;;;;;;;24.33;11.95;;;;;;;;;;5112916;28;20020;-74
2022/12/08 11:03:01;;;;;;;28.00;12.80;;;;;;;;;;5112382;28;20020;-73
2022/12/08 11:05:34;;;;;;;25.40;13.45;;;;;;;;;;5113835;28;20019;-73
2022/12/08 11:08:00;;;;;;;28.77;13.38;;;;;;;;;;5105772;28;20035;-72
2022/12/08 11:10:35;;;;;;;28.35;12.82;;;;;;;;;;5112241;28;20027;-73
2022/12/08 11:13:05;;;;;;;28.90;13.38;;;;;;;;;;5107991;28;20027;-73
2022/12/08 11:15:32;;;;;;;29.35;13.95;;;;;;;;;;5108445;28;20169;-73
2022/12/08 11:18:06;;;;;;;31.38;12.93;;;;;;;;;;5114123;28;20135;-73
2022/12/08 11:20:39;;;;;;;31.40;13.60;;;;;;;;;;5112271;28;20374;-73
2022/12/08 11:23:17;;;;;;;31.15;13.95;;;;;;;;;;5111440;28;20397;-73
2022/12/08 11:25:42;;;;;;;27.60;13.27;;;;;;;;;;5110661;28;20038;-73
2022/12/08 11:28:09;;;;;;;27.90;12.68;;;;;;;;;;5111764;28;20020;-73
2022/12/08 11:30:36;;;;;;;28.05;14.73;;;;;;;;;;5109969;27;20020;-70
2022/12/08 11:33:21;;;;;;;26.55;12.23;;;;;;;;;;5111600;28;20031;-69
2022/12/08 11:35:50;;;;;;;28.00;12.30;;;;;;;;;;5108378;27;20400;-70
2022/12/08 11:38:20;;;;;;;27.77;13.20;;;;;;;;;;5113862;28;20034;-69
2022/12/08 11:40:45;;;;;;;28.48;12.50;;;;;;;;;;5112453;28;20117;-71
2022/12/08 11:43:34;;;;;;;25.95;12.75;;;;;;;;;;5113573;28;20036;-71
2022/12/08 11:46:08;;;;;;;27.35;13.13;;;;;;;;;;5099953;28;20036;-71
2022/12/08 11:48:41;;;;;;;23.92;13.45;;;;;;;;;;5112720;28;20028;-69
2022/12/08 11:51:35;;;;;;;25.50;13.00;;;;;;;;;;5108983;28;20024;-71
2022/12/08 11:54:05;;;;;;;25.35;12.88;;;;;;;;;;5088943;28;20058;-70
2022/12/08 11:56:31;;;;;;;29.52;14.80;;;;;;;;;;5109556;28;20563;-69
2022/12/08 11:58:58;;;;;;;32.93;14.73;;;;;;;;;;5112465;28;20466;-71
2022/12/08 12:01:26;;;;;;;32.80;14.63;;;;;;;;;;5109267;28;21104;-69
2022/12/08 12:03:59;;;;;;;26.27;12.82;;;;;;;;;;5113011;28;20106;-70
2022/12/08 12:06:31;;;;;;;28.20;13.73;;;;;;;;;;5110466;28;20019;-69
2022/12/08 12:09:02;;;;;;;26.40;13.30;;;;;;;;;;5111880;28;20039;-69
2022/12/08 12:14:34;;;;;;;26.25;13.60;;;;;;;;;;5111072;28;20702;-70
2022/12/08 12:17:02;;;;;;;28.17;15.07;;;;;;;;;;5110817;28;20039;-72
2022/12/08 12:19:29;;;;;;;26.23;13.70;;;;;;;;;;5108007;28;20054;-74
2022/12/08 12:22:07;;;;;;;29.98;14.43;;;;;;;;;;5110404;28;20020;-78
2022/12/08 12:24:33;;;;;;;31.27;14.70;;;;;;;;;;5111988;28;20027;-73
2022/12/08 12:27:05;;;;;;;25.30;14.30;;;;;;;;;;5107861;28;20454;-72
2022/12/08 12:29:32;;;;;;;28.80;13.77;;;;;;;;;;5112313;28;20024;-73
2022/12/08 12:32:00;;;;;;;30.45;14.68;;;;;;;;;;5112578;28;20427;-73
2022/12/08 12:34:27;;;;;;;25.95;13.80;;;;;;;;;;5094149;28;20112;-72
2022/12/08 12:36:55;;;;;;;28.67;14.43;;;;;;;;;;5111974;28;20091;-72
2022/12/08 12:39:23;;;;;;;29.17;15.45;;;;;;;;;;5111001;28;20045;-74
2022/12/08 12:41:51;;;;;;;32.92;16.30;;;;;;;;;;5109971;28;20075;-74
2022/12/08 12:44:16;;;;;;;36.17;19.38;;;;;;;;;;5107356;28;20020;-74
2022/12/08 12:46:45;;;;;;;42.88;21.58;;;;;;;;;;5109679;28;20095;-73
2022/12/08 12:49:28;;;;;;;36.28;20.15;;;;;;;;;;5110636;28;20683;-70
2022/12/08 12:51:54;;;;;;;38.50;19.85;;;;;;;;;;5108945;28;20023;-73
2022/12/08 12:54:24;;;;;;;43.92;21.77;;;;;;;;;;5110561;28;20031;-73
2022/12/08 12:56:49;;;;;;;;;;;;;;;;;;5111589;28;20046;-73
2022/12/08 12:59:43;;;;;;;33.87;17.23;;;;;;;;;;5109988;28;19912;-77
2022/12/08 13:02:15;;;;;;;27.30;14.77;;;;;;;;;;5108880;28;20047;-72
2022/12/08 13:04:40;;;;;;;28.77;14.43;;;;;;;;;;5110816;28;20015;-74
2022/12/08 13:07:05;;;;;;;32.38;14.63;;;;;;;;;;5110700;28;20371;-73
2022/12/08 13:09:35;;;;;;;28.95;13.98;;;;;;;;;;5111992;28;20362;-73
2022/12/08 13:12:08;;;;;;;30.92;14.05;;;;;;;;;;5108852;28;20038;-72
2022/12/08 13:14:48;;;;;;;33.67;14.05;;;;;;;;;;5106933;28;20500;-74
2022/12/08 13:17:17;;;;;;;26.70;13.50;;;;;;;;;;5111339;28;20019;-74
2022/12/08 13:19:47;;;;;;;29.35;13.70;;;;;;;;;;5111090;28;20019;-75
2022/12/08 13:22:31;;;;;;;27.52;14.02;;;;;;;;;;5110173;28;20027;-74
2022/12/08 13:25:17;;;;;;;31.02;14.18;;;;;;;;;;5109395;28;20043;-73
2022/12/08 13:27:50;;;;;;;28.55;14.18;;;;;;;;;;5110061;28;20034;-76
2022/12/08 13:30:34;;;;;;;29.30;15.05;;;;;;;;;;5109030;28;20385;-72
2022/12/08 13:33:00;;;;;;;34.42;16.40;;;;;;;;;;5108168;28;20023;-71
2022/12/08 13:35:26;;;;;;;33.97;17.13;;;;;;;;;;5110865;27;20064;-72
2022/12/08 13:37:53;;;;;;;34.65;17.13;;;;;;;;;;5110686;28;20036;-74
2022/12/08 13:40:23;;;;;;;30.35;16.90;;;;;;;;;;5106994;28;20051;-71
2022/12/08 13:42:55;;;;;;;35.97;17.08;;;;;;;;;;5110930;28;20042;-71
2022/12/08 13:45:24;;;;;;;34.55;17.48;;;;;;;;;;5109520;28;20470;-70
2022/12/08 13:47:54;;;;;;;37.20;18.55;;;;;;;;;;5122478;27;20488;-73
2022/12/08 13:50:25;;;;;;;33.53;17.80;;;;;;;;;;5106201;28;20049;-72
2022/12/08 13:52:55;;;;;;;36.83;19.50;;;;;;;;;;5107864;28;20111;-71
2022/12/08 13:55:25;;;;;;;38.30;19.35;;;;;;;;;;5110785;28;20442;-73
2022/12/08 13:57:52;;;;;;;36.67;18.95;;;;;;;;;;5111666;28;20031;-75
2022/12/08 14:00:19;;;;;;;35.28;19.25;;;;;;;;;;5110803;28;20126;-74
2022/12/08 14:02:45;;;;;;;39.95;20.63;;;;;;;;;;5109104;28;20015;-73
2022/12/08 14:05:11;;;;;;;44.08;22.30;;;;;;;;;;5109283;28;20028;-73
2022/12/08 14:07:37;;;;;;;48.08;25.40;;;;;;;;;;5107511;28;20073;-72
2022/12/08 14:10:06;;;;;;;49.00;26.08;;;;;;;;;;5105812;28;20028;-73
2022/12/08 14:12:31;;;;;;;52.05;27.00;;;;;;;;;;5106231;28;20389;-73
2022/12/08 14:14:58;;;;;;;47.67;25.77;;;;;;;;;;5109539;28;20023;-73
2022/12/08 14:17:23;;;;;;;50.78;27.08;;;;;;;;;;5110504;28;20362;-73
2022/12/08 14:19:59;;;;;;;49.75;27.58;;;;;;;;;;5106101;28;20035;-73
2022/12/08 14:22:30;;;;;;;44.42;24.85;;;;;;;;;;5102440;28;20606;-73
2022/12/08 14:24:56;;;;;;;40.88;22.10;;;;;;;;;;5106187;28;20114;-73
2022/12/08 14:27:23;;;;;;;39.88;20.35;;;;;;;;;;5108474;28;20165;-73
2022/12/08 14:29:48;;;;;;;35.55;18.35;;;;;;;;;;5107373;28;20030;-73